sensor_id;sensor_type;location;lat;lon;timestamp;pressure;altitude;pressure_sealevel;temperature;humidity
47220;BME280;32961;51.936;4.788;2023-02-04T00:00:24;103289.78;;;7.09;100.00
47220;BME280;32961;51.936;4.788;2023-02-04T00:02:55;103278.31;;;7.02;100.00
47220;BME280;32961;51.936;4.788;2023-02-04T00:05:22;103282.72;;;7.05;100.00
47220;BME280;32961;51.936;4.788;2023-02-04T00:07:52;103282.78;;;7.03;100.00
47220;BME280;32961;51.936;4.788;2023-02-04T00:10:20;103283.63;;;7.05;100.00
47220;BME280;32961;51.936;4.788;2023-02-04T00:12:47;103280.00;;;7.06;100.00
47220;BME280;32961;51.936;4.788;2023-02-04T00:15:15;103279.91;;;7.08;100.00
47220;BME280;32961;51.936;4.788;2023-02-04T00:17:43;103272.75;;;7.07;100.00
47220;BME280;32961;51.936;4.788;2023-02-04T00:20:11;103272.81;;;7.05;100.00
47220;BME280;32961;51.936;4.788;2023-02-04T00:22:39;103265.53;;;7.07;100.00
47220;BME280;32961;51.936;4.788;2023-02-04T00:25:08;103277.56;;;6.99;100.00
47220;BME280;32961;51.936;4.788;2023-02-04T00:27:36;103277.56;;;6.99;100.00
47220;BME280;32961;51.936;4.788;2023-02-04T00:30:05;103274.19;;;6.94;100.00
47220;BME280;32961;51.936;4.788;2023-02-04T00:32:34;103277.56;;;6.99;100.00
47220;BME280;32961;51.936;4.788;2023-02-04T00:35:02;103286.75;;;6.95;100.00
47220;BME280;32961;51.936;4.788;2023-02-04T00:37:30;103277.72;;;6.96;100.00
47220;BME280;32961;51.936;4.788;2023-02-04T00:39:58;103283.34;;;6.89;100.00
47220;BME280;32961;51.936;4.788;2023-02-04T00:42:27;103281.69;;;6.85;100.00
47220;BME280;32961;51.936;4.788;2023-02-04T00:44:55;103288.00;;;6.86;100.00
47220;BME280;32961;51.936;4.788;2023-02-04T00:47:22;103289.94;;;6.82;100.00
47220;BME280;32961;51.936;4.788;2023-02-04T00:49:53;103285.41;;;6.83;100.00
47220;BME280;32961;51.936;4.788;2023-02-04T00:52:21;103295.34;;;6.82;100.00
47220;BME280;32961;51.936;4.788;2023-02-04T00:54:49;103287.09;;;6.85;100.00
47220;BME280;32961;51.936;4.788;2023-02-04T00:57:17;103292.47;;;6.87;100.00
47220;BME280;32961;51.936;4.788;2023-02-04T00:59:47;103299.56;;;6.89;100.00
47220;BME280;32961;51.936;4.788;2023-02-04T01:02:14;103296.34;;;6.80;100.00
47220;BME280;32961;51.936;4.788;2023-02-04T01:04:44;103297.22;;;6.80;100.00
47220;BME280;32961;51.936;4.788;2023-02-04T01:07:11;103293.47;;;6.84;100.00
47220;BME280;32961;51.936;4.788;2023-02-04T01:09:39;103289.88;;;6.84;100.00
47220;BME280;32961;51.936;4.788;2023-02-04T01:12:07;103301.00;;;6.76;100.00
47220;BME280;32961;51.936;4.788;2023-02-04T01:14:35;103297.19;;;6.82;100.00
47220;BME280;32961;51.936;4.788;2023-02-04T01:17:04;103311.38;;;6.87;100.00
47220;BME280;32961;51.936;4.788;2023-02-04T01:19:32;103312.25;;;6.87;100.00
47220;BME280;32961;51.936;4.788;2023-02-04T01:22:00;103316.56;;;6.93;100.00
47220;BME280;32961;51.936;4.788;2023-02-04T01:24:28;103313.69;;;6.98;100.00
47220;BME280;32961;51.936;4.788;2023-02-04T01:26:55;103317.94;;;7.03;100.00
47220;BME280;32961;51.936;4.788;2023-02-04T01:29:23;103325.03;;;7.06;100.00
47220;BME280;32961;51.936;4.788;2023-02-04T01:31:51;103319.59;;;7.07;100.00
47220;BME280;32961;51.936;4.788;2023-02-04T01:34:20;103333.28;;;7.03;100.00
47220;BME280;32961;51.936;4.788;2023-02-04T01:36:48;103331.63;;;6.99;100.00
47220;BME280;32961;51.936;4.788;2023-02-04T01:39:16;103326.19;;;7.00;100.00
47220;BME280;32961;51.936;4.788;2023-02-04T01:41:44;103327.06;;;7.01;100.00
47220;BME280;32961;51.936;4.788;2023-02-04T01:44:12;103337.03;;;6.99;100.00
47220;BME280;32961;51.936;4.788;2023-02-04T01:46:40;103344.28;;;6.98;100.00
47220;BME280;32961;51.936;4.788;2023-02-04T01:49:09;103334.31;;;7.00;100.00
47220;BME280;32961;51.936;4.788;2023-02-04T01:51:39;103346.91;;;7.00;100.00
47220;BME280;32961;51.936;4.788;2023-02-04T01:54:08;103336.06;;;7.01;100.00
47220;BME280;32961;51.936;4.788;2023-02-04T01:56:37;103338.78;;;7.01;100.00
47220;BME280;32961;51.936;4.788;2023-02-04T01:59:10;103343.28;;;7.01;100.00
47220;BME280;32961;51.936;4.788;2023-02-04T02:01:40;103340.47;;;7.04;100.00
47220;BME280;32961;51.936;4.788;2023-02-04T02:04:10;103343.28;;;7.01;100.00
47220;BME280;32961;51.936;4.788;2023-02-04T02:06:43;103342.34;;;7.02;100.00
47220;BME280;32961;51.936;4.788;2023-02-04T02:09:12;103348.56;;;7.04;100.00
47220;BME280;32961;51.936;4.788;2023-02-04T02:11:40;103357.78;;;6.98;100.00
47220;BME280;32961;51.936;4.788;2023-02-04T02:14:07;103365.91;;;6.98;100.00
47220;BME280;32961;51.936;4.788;2023-02-04T02:16:35;103364.97;;;6.99;100.00
47220;BME280;32961;51.936;4.788;2023-02-04T02:19:05;103369.38;;;7.02;100.00
47220;BME280;32961;51.936;4.788;2023-02-04T02:21:38;103368.44;;;7.03;100.00
47220;BME280;32961;51.936;4.788;2023-02-04T02:24:24;103364.78;;;7.04;100.00
47220;BME280;32961;51.936;4.788;2023-02-04T02:26:53;103367.50;;;7.04;100.00
47220;BME280;32961;51.936;4.788;2023-02-04T02:29:22;103373.06;;;6.99;100.00
47220;BME280;32961;51.936;4.788;2023-02-04T02:31:50;103364.03;;;7.00;100.00
47220;BME280;32961;51.936;4.788;2023-02-04T02:34:18;103362.19;;;7.01;100.00
47220;BME280;32961;51.936;4.788;2023-02-04T02:36:46;103371.13;;;7.03;100.00
47220;BME280;32961;51.936;4.788;2023-02-04T02:39:14;103368.31;;;7.06;100.00
47220;BME280;32961;51.936;4.788;2023-02-04T02:41:43;103367.38;;;7.07;100.00
47220;BME280;32961;51.936;4.788;2023-02-04T02:44:12;103375.53;;;7.05;100.00
47220;BME280;32961;51.936;4.788;2023-02-04T02:46:40;103377.31;;;7.06;100.00
47220;BME280;32961;51.936;4.788;2023-02-04T02:49:12;103382.03;;;7.01;100.00
47220;BME280;32961;51.936;4.788;2023-02-04T02:51:41;103377.41;;;7.03;100.00
47220;BME280;32961;51.936;4.788;2023-02-04T02:54:18;103380.94;;;7.05;100.00
47220;BME280;32961;51.936;4.788;2023-02-04T02:56:49;103374.63;;;7.05;100.00
47220;BME280;32961;51.936;4.788;2023-02-04T02:59:18;103371.91;;;7.06;100.00
47220;BME280;32961;51.936;4.788;2023-02-04T03:01:47;103371.84;;;7.08;100.00
47220;BME280;32961;51.936;4.788;2023-02-04T03:04:18;103378.31;;;7.04;100.00
47220;BME280;32961;51.936;4.788;2023-02-04T03:06:46;103381.97;;;7.03;100.00
47220;BME280;32961;51.936;4.788;2023-02-04T03:09:15;103385.59;;;7.02;100.00
47220;BME280;32961;51.936;4.788;2023-02-04T03:11:43;103384.75;;;7.00;100.00
47220;BME280;32961;51.936;4.788;2023-02-04T03:14:12;103369.47;;;6.99;100.00
47220;BME280;32961;51.936;4.788;2023-02-04T03:16:40;103376.66;;;7.00;100.00
47220;BME280;32961;51.936;4.788;2023-02-04T03:19:10;103379.41;;;6.98;100.00
47220;BME280;32961;51.936;4.788;2023-02-04T03:21:39;103376.72;;;6.98;100.00
47220;BME280;32961;51.936;4.788;2023-02-04T03:24:08;103362.44;;;6.95;100.00
47220;BME280;32961;51.936;4.788;2023-02-04T03:26:36;103364.28;;;6.94;100.00
47220;BME280;32961;51.936;4.788;2023-02-04T03:29:05;103366.97;;;6.94;100.00
47220;BME280;32961;51.936;4.788;2023-02-04T03:31:35;103373.25;;;6.95;100.00
47220;BME280;32961;51.936;4.788;2023-02-04T03:34:03;103375.94;;;6.95;100.00
47220;BME280;32961;51.936;4.788;2023-02-04T03:36:31;103383.22;;;6.93;100.00
47220;BME280;32961;51.936;4.788;2023-02-04T03:38:59;103377.81;;;6.93;100.00
47220;BME280;32961;51.936;4.788;2023-02-04T03:41:29;103382.44;;;6.90;100.00
47220;BME280;32961;51.936;4.788;2023-02-04T03:43:57;103373.38;;;6.92;100.00
47220;BME280;32961;51.936;4.788;2023-02-04T03:46:25;103370.69;;;6.92;100.00
47220;BME280;32961;51.936;4.788;2023-02-04T03:48:55;103381.50;;;6.92;100.00
47220;BME280;32961;51.936;4.788;2023-02-04T03:51:23;103385.06;;;6.92;100.00
47220;BME280;32961;51.936;4.788;2023-02-04T03:53:52;103378.78;;;6.92;100.00
47220;BME280;32961;51.936;4.788;2023-02-04T03:56:20;103377.97;;;6.89;100.00
47220;BME280;32961;51.936;4.788;2023-02-04T03:58:48;103385.16;;;6.89;100.00
47220;BME280;32961;51.936;4.788;2023-02-04T04:01:16;103387.00;;;6.88;100.00
47220;BME280;32961;51.936;4.788;2023-02-04T04:03:44;103385.22;;;6.87;100.00
47220;BME280;32961;51.936;4.788;2023-02-04T04:06:13;103382.53;;;6.87;100.00
47220;BME280;32961;51.936;4.788;2023-02-04T04:08:41;103390.69;;;6.86;100.00
47220;BME280;32961;51.936;4.788;2023-02-04T04:11:08;103391.78;;;6.82;100.00
47220;BME280;32961;51.936;4.788;2023-02-04T04:13:36;103409.78;;;6.81;100.00
47220;BME280;32961;51.936;4.788;2023-02-04T04:16:05;103401.81;;;6.78;100.00
47220;BME280;32961;51.936;4.788;2023-02-04T04:18:33;103413.41;;;6.80;100.00
47220;BME280;32961;51.936;4.788;2023-02-04T04:21:01;103414.25;;;6.82;100.00
47220;BME280;32961;51.936;4.788;2023-02-04T04:23:30;103416.88;;;6.84;100.00
47220;BME280;32961;51.936;4.788;2023-02-04T04:25:58;103418.59;;;6.86;100.00
47220;BME280;32961;51.936;4.788;2023-02-04T04:28:26;103410.44;;;6.88;100.00
47220;BME280;32961;51.936;4.788;2023-02-04T04:30:53;103416.72;;;6.88;100.00
47220;BME280;32961;51.936;4.788;2023-02-04T04:33:21;103411.31;;;6.88;100.00
47220;BME280;32961;51.936;4.788;2023-02-04T04:35:49;103405.91;;;6.88;100.00
47220;BME280;32961;51.936;4.788;2023-02-04T04:38:17;103415.78;;;6.89;100.00
47220;BME280;32961;51.936;4.788;2023-02-04T04:40:46;103413.03;;;6.91;100.00
47220;BME280;32961;51.936;4.788;2023-02-04T04:43:14;103414.84;;;6.90;100.00
47220;BME280;32961;51.936;4.788;2023-02-04T04:45:41;103412.97;;;6.93;100.00
47220;BME280;32961;51.936;4.788;2023-02-04T04:48:09;103420.13;;;6.94;100.00
47220;BME280;32961;51.936;4.788;2023-02-04T04:50:37;103417.50;;;6.92;100.00
47220;BME280;32961;51.936;4.788;2023-02-04T04:53:05;103418.34;;;6.94;100.00
47220;BME280;32961;51.936;4.788;2023-02-04T04:55:36;103420.06;;;6.95;100.00
47220;BME280;32961;51.936;4.788;2023-02-04T04:58:06;103428.19;;;6.95;100.00
47220;BME280;32961;51.936;4.788;2023-02-04T05:00:34;103423.59;;;6.97;100.00
47220;BME280;32961;51.936;4.788;2023-02-04T05:03:02;103424.53;;;6.96;100.00
47220;BME280;32961;51.936;4.788;2023-02-04T05:05:30;103425.44;;;6.97;100.00
47220;BME280;32961;51.936;4.788;2023-02-04T05:07:58;103434.41;;;6.97;100.00
47220;BME280;32961;51.936;4.788;2023-02-04T05:10:26;103431.84;;;6.94;100.00
47220;BME280;32961;51.936;4.788;2023-02-04T05:12:53;103434.66;;;6.91;100.00
47220;BME280;32961;51.936;4.788;2023-02-04T05:15:22;103434.66;;;6.91;100.00
47220;BME280;32961;51.936;4.788;2023-02-04T05:17:50;103441.81;;;6.92;100.00
47220;BME280;32961;51.936;4.788;2023-02-04T05:20:19;103448.22;;;6.89;100.00
47220;BME280;32961;51.936;4.788;2023-02-04T05:22:46;103447.28;;;6.90;100.00
47220;BME280;32961;51.936;4.788;2023-02-04T05:25:14;103441.88;;;6.90;100.00
47220;BME280;32961;51.936;4.788;2023-02-04T05:27:43;103439.19;;;6.90;100.00
47220;BME280;32961;51.936;4.788;2023-02-04T05:30:11;103437.41;;;6.89;100.00
47220;BME280;32961;51.936;4.788;2023-02-04T05:32:41;103436.47;;;6.90;100.00
47220;BME280;32961;51.936;4.788;2023-02-04T05:35:09;103444.59;;;6.90;100.00
47220;BME280;32961;51.936;4.788;2023-02-04T05:37:36;103446.41;;;6.90;100.00
47220;BME280;32961;51.936;4.788;2023-02-04T05:40:05;103453.69;;;6.88;100.00
47220;BME280;32961;51.936;4.788;2023-02-04T05:42:33;103453.69;;;6.88;100.00
47220;BME280;32961;51.936;4.788;2023-02-04T05:45:01;103449.16;;;6.88;100.00
47220;BME280;32961;51.936;4.788;2023-02-04T05:47:29;103455.44;;;6.89;100.00
47220;BME280;32961;51.936;4.788;2023-02-04T05:49:58;103459.03;;;6.89;100.00
47220;BME280;32961;51.936;4.788;2023-02-04T05:52:26;103460.91;;;6.87;100.00
47220;BME280;32961;51.936;4.788;2023-02-04T05:54:53;103461.84;;;6.86;100.00
47220;BME280;32961;51.936;4.788;2023-02-04T05:57:21;103466.31;;;6.87;100.00
47220;BME280;32961;51.936;4.788;2023-02-04T05:59:49;103465.38;;;6.88;100.00
47220;BME280;32961;51.936;4.788;2023-02-04T06:02:17;103464.38;;;6.91;100.00
47220;BME280;32961;51.936;4.788;2023-02-04T06:04:45;103467.84;;;6.95;100.00
47220;BME280;32961;51.936;4.788;2023-02-04T06:07:14;103459.75;;;6.95;100.00
47220;BME280;32961;51.936;4.788;2023-02-04T06:09:41;103476.84;;;6.95;100.00
47220;BME280;32961;51.936;4.788;2023-02-04T06:12:10;103468.69;;;6.97;100.00
47220;BME280;32961;51.936;4.788;2023-02-04T06:14:37;103474.09;;;6.97;100.00
47220;BME280;32961;51.936;4.788;2023-02-04T06:17:05;103476.72;;;6.98;100.00
47220;BME280;32961;51.936;4.788;2023-02-04T06:19:33;103472.25;;;6.97;100.00
47220;BME280;32961;51.936;4.788;2023-02-04T06:22:01;103473.19;;;6.96;100.00
47220;BME280;32961;51.936;4.788;2023-02-04T06:24:32;103478.66;;;6.95;100.00
47220;BME280;32961;51.936;4.788;2023-02-04T06:27:00;103480.50;;;6.94;100.00
47220;BME280;32961;51.936;4.788;2023-02-04T06:29:28;103486.78;;;6.95;100.00
47220;BME280;32961;51.936;4.788;2023-02-04T06:31:56;103488.53;;;6.96;100.00
47220;BME280;32961;51.936;4.788;2023-02-04T06:34:24;103493.88;;;6.97;100.00
47220;BME280;32961;51.936;4.788;2023-02-04T06:36:51;103500.28;;;6.95;100.00
47220;BME280;32961;51.936;4.788;2023-02-04T06:39:19;103505.69;;;6.95;100.00
47220;BME280;32961;51.936;4.788;2023-02-04T06:41:48;103512.88;;;6.96;100.00
47220;BME280;32961;51.936;4.788;2023-02-04T06:44:16;103511.16;;;6.93;100.00
47220;BME280;32961;51.936;4.788;2023-02-04T06:46:44;103514.69;;;6.95;100.00
47220;BME280;32961;51.936;4.788;2023-02-04T06:49:12;103502.06;;;6.96;100.00
47220;BME280;32961;51.936;4.788;2023-02-04T06:51:40;103505.63;;;6.96;100.00
47220;BME280;32961;51.936;4.788;2023-02-04T06:54:07;103515.56;;;6.96;100.00
47220;BME280;32961;51.936;4.788;2023-02-04T06:56:35;103513.75;;;6.96;100.00
47220;BME280;32961;51.936;4.788;2023-02-04T06:59:04;103516.34;;;6.99;100.00
47220;BME280;32961;51.936;4.788;2023-02-04T07:01:32;103512.75;;;6.99;100.00
47220;BME280;32961;51.936;4.788;2023-02-04T07:04:00;103516.34;;;6.99;100.00
47220;BME280;32961;51.936;4.788;2023-02-04T07:06:28;103513.59;;;7.01;100.00
47220;BME280;32961;51.936;4.788;2023-02-04T07:08:55;103519.91;;;7.01;100.00
47220;BME280;32961;51.936;4.788;2023-02-04T07:11:23;103525.31;;;7.00;100.00
47220;BME280;32961;51.936;4.788;2023-02-04T07:13:51;103525.41;;;6.98;100.00
47220;BME280;32961;51.936;4.788;2023-02-04T07:16:20;103529.03;;;6.97;100.00
47220;BME280;32961;51.936;4.788;2023-02-04T07:18:48;103529.03;;;6.97;100.00
47220;BME280;32961;51.936;4.788;2023-02-04T07:21:16;103524.56;;;6.96;100.00
47220;BME280;32961;51.936;4.788;2023-02-04T07:23:43;103532.56;;;6.99;100.00
47220;BME280;32961;51.936;4.788;2023-02-04T07:26:11;103537.91;;;7.01;100.00
47220;BME280;32961;51.936;4.788;2023-02-04T07:28:39;103532.50;;;7.01;100.00
47220;BME280;32961;51.936;4.788;2023-02-04T07:31:07;103536.97;;;7.02;100.00
47220;BME280;32961;51.936;4.788;2023-02-04T07:33:37;103530.72;;;7.01;100.00
47220;BME280;32961;51.936;4.788;2023-02-04T07:36:05;103533.59;;;6.95;100.00
47220;BME280;32961;51.936;4.788;2023-02-04T07:38:33;103551.56;;;6.98;100.00
47220;BME280;32961;51.936;4.788;2023-02-04T07:41:01;103547.88;;;6.99;100.00
47220;BME280;32961;51.936;4.788;2023-02-04T07:43:28;103537.91;;;7.01;100.00
47220;BME280;32961;51.936;4.788;2023-02-04T07:45:56;103546.88;;;7.03;100.00
47220;BME280;32961;51.936;4.788;2023-02-04T07:48:24;103557.69;;;7.03;100.00
47220;BME280;32961;51.936;4.788;2023-02-04T07:50:53;103561.19;;;7.05;100.00
47220;BME280;32961;51.936;4.788;2023-02-04T07:53:21;103560.25;;;7.06;100.00
47220;BME280;32961;51.936;4.788;2023-02-04T07:55:49;103554.84;;;7.06;100.00
47220;BME280;32961;51.936;4.788;2023-02-04T07:58:16;103561.03;;;7.10;100.00
47220;BME280;32961;51.936;4.788;2023-02-04T08:00:44;103561.03;;;7.10;100.00
47220;BME280;32961;51.936;4.788;2023-02-04T08:03:12;103564.56;;;7.12;100.00
47220;BME280;32961;51.936;4.788;2023-02-04T08:05:40;103562.72;;;7.14;100.00
47220;BME280;32961;51.936;4.788;2023-02-04T08:08:09;103567.22;;;7.13;100.00
47220;BME280;32961;51.936;4.788;2023-02-04T08:10:37;103586.03;;;7.16;100.00
47220;BME280;32961;51.936;4.788;2023-02-04T08:13:05;103584.28;;;7.15;100.00
47220;BME280;32961;51.936;4.788;2023-02-04T08:15:32;103586.84;;;7.18;100.00
47220;BME280;32961;51.936;4.788;2023-02-04T08:18:00;103587.69;;;7.20;100.00
47220;BME280;32961;51.936;4.788;2023-02-04T08:20:28;103587.59;;;7.23;100.00
47220;BME280;32961;51.936;4.788;2023-02-04T08:22:57;103595.72;;;7.23;100.00
47220;BME280;32961;51.936;4.788;2023-02-04T08:25:26;103587.53;;;7.25;100.00
47220;BME280;32961;51.936;4.788;2023-02-04T08:27:55;103592.00;;;7.26;100.00
47220;BME280;32961;51.936;4.788;2023-02-04T08:30:23;103601.88;;;7.27;100.00
47220;BME280;32961;51.936;4.788;2023-02-04T08:32:51;103593.72;;;7.29;100.00
47220;BME280;32961;51.936;4.788;2023-02-04T08:35:18;103599.00;;;7.32;100.00
47220;BME280;32961;51.936;4.788;2023-02-04T08:37:46;103601.69;;;7.32;100.00
47220;BME280;32961;51.936;4.788;2023-02-04T08:40:14;103607.94;;;7.34;100.00
47220;BME280;32961;51.936;4.788;2023-02-04T08:42:44;103609.66;;;7.36;100.00
47220;BME280;32961;51.936;4.788;2023-02-04T08:45:12;103605.88;;;7.41;100.00
47220;BME280;32961;51.936;4.788;2023-02-04T08:47:40;103615.75;;;7.43;100.00
47220;BME280;32961;51.936;4.788;2023-02-04T08:50:09;103614.78;;;7.44;100.00
47220;BME280;32961;51.936;4.788;2023-02-04T08:52:36;103615.56;;;7.48;100.00
47220;BME280;32961;51.936;4.788;2023-02-04T08:55:05;103618.25;;;7.48;100.00
47220;BME280;32961;51.936;4.788;2023-02-04T08:57:33;103617.25;;;7.50;100.00
47220;BME280;32961;51.936;4.788;2023-02-04T09:00:03;103616.28;;;7.53;100.00
47220;BME280;32961;51.936;4.788;2023-02-04T09:02:31;103625.34;;;7.52;100.00
47220;BME280;32961;51.936;4.788;2023-02-04T09:04:59;103614.44;;;7.53;100.00
47220;BME280;32961;51.936;4.788;2023-02-04T09:07:26;103627.03;;;7.54;100.00
47220;BME280;32961;51.936;4.788;2023-02-04T09:09:54;103631.47;;;7.57;100.00
47220;BME280;32961;51.936;4.788;2023-02-04T09:12:22;103636.81;;;7.59;100.00
47220;BME280;32961;51.936;4.788;2023-02-04T09:14:50;103637.59;;;7.62;100.00
47220;BME280;32961;51.936;4.788;2023-02-04T09:17:19;103643.69;;;7.67;100.00
47220;BME280;32961;51.936;4.788;2023-02-04T09:19:46;103641.84;;;7.69;100.00
47220;BME280;32961;51.936;4.788;2023-02-04T09:22:14;103641.72;;;7.73;100.00
47220;BME280;32961;51.936;4.788;2023-02-04T09:24:42;103645.25;;;7.75;100.00
47220;BME280;32961;51.936;4.788;2023-02-04T09:27:10;103648.88;;;7.74;100.00
47220;BME280;32961;51.936;4.788;2023-02-04T09:29:38;103647.94;;;7.75;100.00
47220;BME280;32961;51.936;4.788;2023-02-04T09:32:05;103648.78;;;7.77;100.00
47220;BME280;32961;51.936;4.788;2023-02-04T09:34:35;103639.72;;;7.78;100.00
47220;BME280;32961;51.936;4.788;2023-02-04T09:37:03;103642.28;;;7.82;100.00
47220;BME280;32961;51.936;4.788;2023-02-04T09:39:30;103639.44;;;7.85;100.00
47220;BME280;32961;51.936;4.788;2023-02-04T09:41:58;103645.69;;;7.87;100.00
47220;BME280;32961;51.936;4.788;2023-02-04T09:44:27;103652.81;;;7.90;100.00
47220;BME280;32961;51.936;4.788;2023-02-04T09:46:57;103643.75;;;7.91;100.00
47220;BME280;32961;51.936;4.788;2023-02-04T09:49:26;103647.22;;;7.95;100.00
47220;BME280;32961;51.936;4.788;2023-02-04T09:51:55;103656.09;;;7.98;100.00
47220;BME280;32961;51.936;4.788;2023-02-04T09:54:24;103658.75;;;8.00;100.00
47220;BME280;32961;51.936;4.788;2023-02-04T09:56:51;103658.63;;;8.03;100.00
47220;BME280;32961;51.936;4.788;2023-02-04T09:59:21;103662.06;;;8.08;100.00
47220;BME280;32961;51.936;4.788;2023-02-04T10:01:53;103662.84;;;8.10;100.00
47220;BME280;32961;51.936;4.788;2023-02-04T10:04:22;103667.41;;;8.10;100.00
47220;BME280;32961;51.936;4.788;2023-02-04T10:06:50;103667.34;;;8.11;100.00
47220;BME280;32961;51.936;4.788;2023-02-04T10:09:19;103671.19;;;8.06;100.00
47220;BME280;32961;51.936;4.788;2023-02-04T10:11:47;103675.63;;;8.07;100.00
47220;BME280;32961;51.936;4.788;2023-02-04T10:14:18;103676.41;;;8.10;100.00
47220;BME280;32961;51.936;4.788;2023-02-04T10:16:51;103680.03;;;8.09;100.00
47220;BME280;32961;51.936;4.788;2023-02-04T10:19:24;103684.41;;;8.13;100.00
47220;BME280;32961;51.936;4.788;2023-02-04T10:21:53;103681.78;;;8.12;100.00
47220;BME280;32961;51.936;4.788;2023-02-04T10:24:24;103681.72;;;8.13;100.00
47220;BME280;32961;51.936;4.788;2023-02-04T10:26:53;103676.22;;;8.15;100.00
47220;BME280;32961;51.936;4.788;2023-02-04T10:29:22;103684.41;;;8.13;100.00
47220;BME280;32961;51.936;4.788;2023-02-04T10:31:52;103687.22;;;8.10;100.00
47220;BME280;32961;51.936;4.788;2023-02-04T10:34:21;103691.84;;;8.08;100.00
47220;BME280;32961;51.936;4.788;2023-02-04T10:36:51;103684.41;;;8.13;100.00
47220;BME280;32961;51.936;4.788;2023-02-04T10:39:23;103678.84;;;8.18;100.00
47220;BME280;32961;51.936;4.788;2023-02-04T10:41:52;103677.81;;;8.21;100.00
47220;BME280;32961;51.936;4.788;2023-02-04T10:44:25;103685.81;;;8.24;100.00
47220;BME280;32961;51.936;4.788;2023-02-04T10:46:59;103686.50;;;8.29;100.00
47220;BME280;32961;51.936;4.788;2023-02-04T10:49:28;103683.81;;;8.29;100.00
47220;BME280;32961;51.936;4.788;2023-02-04T10:51:56;103682.63;;;8.36;100.00
47220;BME280;32961;51.936;4.788;2023-02-04T10:54:29;103692.28;;;8.43;100.00
47220;BME280;32961;51.936;4.788;2023-02-04T10:57:07;103688.41;;;8.50;100.00
47220;BME280;32961;51.936;4.788;2023-02-04T10:59:40;103686.41;;;8.56;100.00
47220;BME280;32961;51.936;4.788;2023-02-04T11:02:30;103697.13;;;8.59;100.00
47220;BME280;32961;51.936;4.788;2023-02-04T11:04:59;103690.78;;;8.60;99.81
47220;BME280;32961;51.936;4.788;2023-02-04T11:07:28;103695.38;;;8.58;98.52
47220;BME280;32961;51.936;4.788;2023-02-04T11:09:57;103691.56;;;8.62;99.23
47220;BME280;32961;51.936;4.788;2023-02-04T11:12:38;103691.22;;;8.71;99.60
47220;BME280;32961;51.936;4.788;2023-02-04T11:15:40;103680.47;;;8.68;97.62
47220;BME280;32961;51.936;4.788;2023-02-04T11:18:11;103675.91;;;8.70;96.40
47220;BME280;32961;51.936;4.788;2023-02-04T11:20:40;103673.38;;;8.65;94.27
47220;BME280;32961;51.936;4.788;2023-02-04T11:23:16;103673.19;;;8.70;95.96
47220;BME280;32961;51.936;4.788;2023-02-04T11:25:45;103672.06;;;8.76;95.58
47220;BME280;32961;51.936;4.788;2023-02-04T11:28:14;103679.19;;;8.78;94.64
47220;BME280;32961;51.936;4.788;2023-02-04T11:30:43;103675.38;;;8.82;94.56
47220;BME280;32961;51.936;4.788;2023-02-04T11:33:23;103678.34;;;8.76;91.04
47220;BME280;32961;51.936;4.788;2023-02-04T11:36:01;103685.44;;;8.80;92.41
47220;BME280;32961;51.936;4.788;2023-02-04T11:38:31;103671.72;;;8.83;93.04
47220;BME280;32961;51.936;4.788;2023-02-04T11:41:00;103667.91;;;8.89;92.57
47220;BME280;32961;51.936;4.788;2023-02-04T11:43:32;103673.00;;;8.97;92.72
47220;BME280;32961;51.936;4.788;2023-02-04T11:46:03;103674.59;;;9.01;91.86
47220;BME280;32961;51.936;4.788;2023-02-04T11:48:34;103670.00;;;9.03;91.55
47220;BME280;32961;51.936;4.788;2023-02-04T11:51:10;103670.00;;;9.03;90.39
47220;BME280;32961;51.936;4.788;2023-02-04T11:53:38;103674.50;;;9.04;90.13
47220;BME280;32961;51.936;4.788;2023-02-04T11:56:15;103672.66;;;9.05;90.66
47220;BME280;32961;51.936;4.788;2023-02-04T11:58:43;103672.53;;;9.08;90.45
47220;BME280;32961;51.936;4.788;2023-02-04T12:01:17;103669.75;;;9.09;89.84
47220;BME280;32961;51.936;4.788;2023-02-04T12:03:48;103671.38;;;9.13;90.77
47220;BME280;32961;51.936;4.788;2023-02-04T12:06:20;103663.88;;;9.20;90.97
47220;BME280;32961;51.936;4.788;2023-02-04T12:08:48;103670.06;;;9.24;90.87
47220;BME280;32961;51.936;4.788;2023-02-04T12:11:25;103667.19;;;9.27;90.47
47220;BME280;32961;51.936;4.788;2023-02-04T12:13:58;103663.69;;;9.25;90.07
47220;BME280;32961;51.936;4.788;2023-02-04T12:16:26;103665.28;;;9.29;90.29
47220;BME280;32961;51.936;4.788;2023-02-04T12:18:53;103657.84;;;9.34;90.12
47220;BME280;32961;51.936;4.788;2023-02-04T12:21:21;103669.25;;;9.42;89.60
47220;BME280;32961;51.936;4.788;2023-02-04T12:23:49;103666.53;;;9.42;88.86
47220;BME280;32961;51.936;4.788;2023-02-04T12:26:17;103672.03;;;9.41;88.34
47220;BME280;32961;51.936;4.788;2023-02-04T12:28:46;103673.72;;;9.43;88.77
47220;BME280;32961;51.936;4.788;2023-02-04T12:31:14;103679.97;;;9.45;88.29
47220;BME280;32961;51.936;4.788;2023-02-04T12:33:42;103673.16;;;9.35;87.62
47220;BME280;32961;51.936;4.788;2023-02-04T12:36:09;103672.22;;;9.36;88.34
47220;BME280;32961;51.936;4.788;2023-02-04T12:38:37;103681.31;;;9.35;88.30
47220;BME280;32961;51.936;4.788;2023-02-04T12:41:06;103680.28;;;9.38;88.56
47220;BME280;32961;51.936;4.788;2023-02-04T12:43:33;103688.22;;;9.42;89.07
47220;BME280;32961;51.936;4.788;2023-02-04T12:46:03;103684.38;;;9.48;88.94
47220;BME280;32961;51.936;4.788;2023-02-04T12:48:31;103682.47;;;9.50;88.79
47220;BME280;32961;51.936;4.788;2023-02-04T12:50:59;103674.47;;;9.47;87.72
47220;BME280;32961;51.936;4.788;2023-02-04T12:53:26;103671.94;;;9.42;87.07
47220;BME280;32961;51.936;4.788;2023-02-04T12:55:54;103670.00;;;9.46;88.15
47220;BME280;32961;51.936;4.788;2023-02-04T12:58:23;103674.41;;;9.48;88.20
47220;BME280;32961;51.936;4.788;2023-02-04T13:00:51;103675.28;;;9.49;88.01